Time;durP1;ratioP1;P1;durP2;ratioP2;P2;SDS_P1;SDS_P2;PMS_P1;PMS_P2;Temp;Humidity;BMP_temperature;BMP_pressure;BME280_temperature;BME280_humidity;BME280_pressure;Samples;Min_cycle;Max_cycle;Signal;HPM_P1;HPM_P2
2022/05/13 00:00:56;;;;;;;1999.90;999.90;;;14.20;99.90;;;;;;5054883;28;20899;-73
2022/05/13 00:03:22;;;;;;;1999.90;999.90;;;14.20;99.90;;;;;;5055427;28;20442;-73
2022/05/13 00:05:50;;;;;;;1999.90;999.90;;;14.20;99.90;;;;;;5054541;28;20406;-73
2022/05/13 00:08:16;;;;;;;1999.90;999.90;;;14.00;99.90;;;;;;5054795;28;20184;-72
2022/05/13 00:10:42;;;;;;;1999.90;999.90;;;14.00;99.90;;;;;;5056347;28;20404;-73
2022/05/13 00:13:08;;;;;;;1999.90;999.90;;;13.90;99.90;;;;;;5056171;28;20184;-73
2022/05/13 00:15:34;;;;;;;1999.90;999.90;;;13.90;99.90;;;;;;5055506;28;20403;-73
2022/05/13 00:18:00;;;;;;;1999.90;999.90;;;14.00;99.90;;;;;;5055392;28;20442;-73
2022/05/13 00:20:26;;;;;;;1999.90;999.90;;;13.90;99.90;;;;;;5056004;28;20197;-73
2022/05/13 00:22:53;;;;;;;1999.90;999.90;;;13.90;99.90;;;;;;5055986;28;20956;-73
2022/05/13 00:25:25;;;;;;;1999.90;999.90;;;13.90;99.90;;;;;;5055285;28;20465;-73
2022/05/13 00:27:53;;;;;;;1999.90;999.90;;;13.90;99.90;;;;;;5056170;28;20452;-73
2022/05/13 00:30:19;;;;;;;1999.90;999.90;;;13.90;99.90;;;;;;5055577;28;20404;-73
2022/05/13 00:32:45;;;;;;;1999.90;999.90;;;13.80;99.90;;;;;;5054552;28;20493;-73
2022/05/13 00:35:11;;;;;;;1999.90;999.90;;;13.80;99.90;;;;;;5055352;28;20164;-73
2022/05/13 00:37:36;;;;;;;1999.90;999.90;;;13.70;99.90;;;;;;5055476;28;20419;-73
2022/05/13 00:40:03;;;;;;;1999.90;999.90;;;13.70;99.90;;;;;;5054846;28;20404;-73
2022/05/13 00:42:29;;;;;;;1999.90;999.90;;;13.70;99.90;;;;;;5054720;28;20164;-73
2022/05/13 00:44:55;;;;;;;1999.90;999.90;;;13.60;99.90;;;;;;5054878;28;20448;-72
2022/05/13 00:47:21;;;;;;;1999.90;999.90;;;13.50;99.90;;;;;;5055498;28;20419;-73
2022/05/13 00:49:47;;;;;;;1999.90;999.90;;;13.50;99.90;;;;;;5054706;28;20410;-73
2022/05/13 00:52:13;;;;;;;1999.90;999.90;;;13.50;99.90;;;;;;5054527;28;20165;-73
2022/05/13 00:54:41;;;;;;;1999.90;999.90;;;13.40;99.90;;;;;;5054056;28;20759;-73
2022/05/13 00:57:07;;;;;;;1999.90;999.90;;;13.40;99.90;;;;;;5054200;28;20801;-73
2022/05/13 00:59:36;;;;;;;1999.90;999.90;;;13.50;99.90;;;;;;5054924;28;20437;-73
2022/05/13 01:02:01;;;;;;;1999.90;999.90;;;13.50;99.90;;;;;;5055474;28;20408;-73
2022/05/13 01:04:30;;;;;;;1999.90;999.90;;;13.50;99.90;;;;;;5054756;28;20456;-73
2022/05/13 01:07:03;;;;;;;1999.90;999.90;;;13.40;99.90;;;;;;5054729;28;20190;-73
2022/05/13 01:09:31;;;;;;;1999.90;999.90;;;13.30;99.90;;;;;;5054679;28;20625;-72
2022/05/13 01:11:58;;;;;;;1999.90;999.90;;;13.30;99.90;;;;;;5055142;28;20411;-73
2022/05/13 01:14:29;;;;;;;1999.90;999.90;;;13.30;99.90;;;;;;5052358;28;20403;-71
2022/05/13 01:20:25;;;;;;;1999.90;999.90;;;13.10;99.90;;;;;;5017739;28;20410;-72
2022/05/13 01:22:53;;;;;;;1999.90;999.90;;;13.00;99.90;;;;;;5051630;28;20459;-71
2022/05/13 01:25:24;;;;;;;1999.90;999.90;;;13.00;99.90;;;;;;5051374;28;20899;-71
2022/05/13 01:27:50;;;;;;;1999.90;999.90;;;12.90;99.90;;;;;;5051623;28;20449;-71
2022/05/13 01:30:19;;;;;;;1999.90;999.90;;;12.90;99.90;;;;;;5053492;28;20481;-71
2022/05/13 01:32:45;;;;;;;1999.90;999.90;;;12.90;99.90;;;;;;5055571;28;20494;-71
2022/05/13 01:35:11;;;;;;;1999.90;999.90;;;12.80;99.90;;;;;;5055304;28;20585;-71
2022/05/13 01:37:36;;;;;;;1999.90;999.90;;;12.80;99.90;;;;;;5055415;28;20271;-71
2022/05/13 01:40:04;;;;;;;1999.90;999.90;;;12.80;99.90;;;;;;5055496;28;20168;-71
2022/05/13 01:42:31;;;;;;;1999.90;999.90;;;12.70;99.90;;;;;;5055612;28;20175;-72
2022/05/13 01:44:57;;;;;;;1999.90;999.90;;;12.70;99.90;;;;;;5055141;28;20435;-71
2022/05/13 01:47:24;;;;;;;1999.90;999.90;;;12.60;99.90;;;;;;5055182;28;20423;-72
2022/05/13 01:49:50;;;;;;;1999.90;999.90;;;12.60;99.90;;;;;;5055297;28;20746;-71
2022/05/13 01:52:16;;;;;;;1999.90;999.90;;;12.60;99.90;;;;;;5055253;28;20804;-71
2022/05/13 01:54:41;;;;;;;1999.90;999.90;;;12.50;99.90;;;;;;5055202;28;20415;-71
2022/05/13 01:57:07;;;;;;;1999.90;999.90;;;12.50;99.90;;;;;;5055096;28;20548;-71
2022/05/13 01:59:32;;;;;;;1999.90;999.90;;;12.50;99.90;;;;;;5055104;28;20168;-71
2022/05/13 02:01:58;;;;;;;1999.90;999.90;;;12.50;99.90;;;;;;5055321;28;20246;-72
2022/05/13 02:04:24;;;;;;;1999.90;999.90;;;12.40;99.90;;;;;;5054651;28;20584;-71
2022/05/13 02:06:49;;;;;;;1999.90;999.90;;;12.40;99.90;;;;;;5054922;28;20189;-72
2022/05/13 02:09:15;;;;;;;1999.90;999.90;;;12.40;99.90;;;;;;5055748;28;20177;-72
2022/05/13 02:11:40;;;;;;;1999.90;999.90;;;12.40;99.90;;;;;;5056198;28;20720;-72
2022/05/13 02:14:06;;;;;;;1999.90;999.90;;;12.40;99.90;;;;;;5056110;28;20174;-73
2022/05/13 02:16:32;;;;;;;1999.90;999.90;;;12.30;99.90;;;;;;5055439;28;20204;-72
2022/05/13 02:18:58;;;;;;;1999.90;999.90;;;12.40;99.90;;;;;;5055460;28;21037;-73
2022/05/13 02:21:25;;;;;;;1999.90;999.90;;;12.20;99.90;;;;;;5055604;28;20633;-72
2022/05/13 02:23:52;;;;;;;1999.90;999.90;;;12.20;99.90;;;;;;5055285;28;20989;-73
2022/05/13 02:26:17;;;;;;;1999.90;999.90;;;12.20;99.90;;;;;;5055081;28;20486;-72
2022/05/13 02:28:44;;;;;;;1999.90;999.90;;;12.20;99.90;;;;;;5055273;28;20410;-72
2022/05/13 02:31:11;;;;;;;1999.90;999.90;;;12.30;99.90;;;;;;5055229;28;20410;-73
2022/05/13 02:33:37;;;;;;;1999.90;999.90;;;12.20;99.90;;;;;;5054998;28;20965;-72
2022/05/13 02:36:04;;;;;;;1999.90;999.90;;;12.20;99.90;;;;;;5054883;28;20525;-73
2022/05/13 02:38:30;;;;;;;1999.90;999.90;;;12.20;99.90;;;;;;5055177;28;20414;-72
2022/05/13 02:41:11;;;;;;;1999.90;999.90;;;12.10;99.90;;;;;;5054682;28;20440;-72
2022/05/13 02:43:39;;;;;;;1999.90;999.90;;;12.10;99.90;;;;;;5055263;28;20441;-72
2022/05/13 02:46:04;;;;;;;1999.90;999.90;;;12.10;99.90;;;;;;5054364;28;20438;-72
2022/05/13 02:48:30;;;;;;;1999.90;999.90;;;12.10;99.90;;;;;;5055298;28;20412;-72
2022/05/13 02:50:56;;;;;;;1999.90;999.90;;;12.10;99.90;;;;;;5054705;28;20922;-72
2022/05/13 02:53:22;;;;;;;1999.90;999.90;;;12.10;99.90;;;;;;5054768;28;20412;-72
2022/05/13 02:55:48;;;;;;;1999.90;999.90;;;12.10;99.90;;;;;;5054694;28;20187;-73
2022/05/13 02:58:14;;;;;;;1999.90;999.90;;;12.00;99.90;;;;;;5054879;28;20406;-72
2022/05/13 03:00:40;;;;;;;1999.90;999.90;;;11.90;99.90;;;;;;5054808;28;20406;-73
2022/05/13 03:03:06;;;;;;;1999.90;999.90;;;11.80;99.90;;;;;;5055211;28;20458;-72
2022/05/13 03:05:36;;;;;;;1999.90;999.90;;;11.70;99.90;;;;;;5054708;28;20756;-72
2022/05/13 03:08:01;;;;;;;1999.90;999.90;;;11.60;99.90;;;;;;5054897;28;20190;-73
2022/05/13 03:10:33;;;;;;;1999.90;999.90;;;11.70;99.90;;;;;;5054721;28;20943;-72
2022/05/13 03:12:59;;;;;;;1999.90;999.90;;;11.60;99.90;;;;;;5054936;28;20633;-72
2022/05/13 03:15:26;;;;;;;1999.90;999.90;;;11.50;99.90;;;;;;5054469;28;20410;-72
2022/05/13 03:17:51;;;;;;;1999.90;999.90;;;11.50;99.90;;;;;;5054529;28;20458;-72
2022/05/13 03:20:19;;;;;;;1999.90;999.90;;;11.50;99.90;;;;;;5054863;28;20856;-72
2022/05/13 03:22:46;;;;;;;1999.90;999.90;;;11.40;99.90;;;;;;5054367;28;20171;-72
2022/05/13 03:25:13;;;;;;;1999.90;999.90;;;11.30;99.90;;;;;;5054152;28;20410;-72
2022/05/13 03:27:39;;;;;;;1999.90;999.90;;;11.40;99.90;;;;;;5054090;28;20426;-72
2022/05/13 03:30:06;;;;;;;1999.90;999.90;;;11.30;99.90;;;;;;5054481;28;20814;-73
2022/05/13 03:32:32;;;;;;;1999.90;999.90;;;11.30;99.90;;;;;;5054413;28;20433;-72
2022/05/13 03:34:58;;;;;;;1999.90;999.90;;;11.30;99.90;;;;;;5053996;28;20915;-72
2022/05/13 03:37:23;;;;;;;1999.90;999.90;;;11.20;99.90;;;;;;5054489;28;20199;-72
2022/05/13 03:39:49;;;;;;;1999.90;999.90;;;11.30;99.90;;;;;;5054566;28;20406;-72
2022/05/13 03:42:15;;;;;;;1999.90;999.90;;;11.20;99.90;;;;;;5054014;28;20176;-73
2022/05/13 03:44:41;;;;;;;1999.90;999.90;;;11.20;99.90;;;;;;5053540;28;20195;-72
2022/05/13 03:47:07;;;;;;;1999.90;999.90;;;11.20;99.90;;;;;;5053570;28;20418;-72
2022/05/13 03:49:33;;;;;;;1999.90;999.90;;;11.30;99.90;;;;;;5054051;28;20425;-73
2022/05/13 03:51:59;;;;;;;1999.90;999.90;;;11.20;99.90;;;;;;5052995;28;20236;-72
2022/05/13 03:54:24;;;;;;;1999.90;999.90;;;11.30;99.90;;;;;;5053176;28;20571;-73
2022/05/13 03:56:50;;;;;;;1999.90;999.90;;;11.20;99.90;;;;;;5053381;28;20199;-72
2022/05/13 03:59:16;;;;;;;1999.90;999.90;;;11.30;99.90;;;;;;5053425;28;20191;-72
2022/05/13 04:01:41;;;;;;;1999.90;999.90;;;11.30;99.90;;;;;;5053300;28;20179;-72
2022/05/13 04:04:07;;;;;;;1999.90;999.90;;;11.20;99.90;;;;;;5053023;28;20303;-73
2022/05/13 04:09:17;;;;;;;1999.90;999.90;;;11.20;99.90;;;;;;5053733;28;20249;-72
2022/05/13 04:16:04;;;;;;;1999.90;999.90;;;11.20;99.90;;;;;;5053615;28;20451;-72
2022/05/13 04:17:17;;;;;;;1999.90;999.90;;;11.30;99.90;;;;;;5024265;28;20458;-72
2022/05/13 04:19:43;;;;;;;1999.90;999.90;;;11.30;99.90;;;;;;5053497;28;20421;-73
2022/05/13 04:22:10;;;;;;;1999.90;999.90;;;11.40;99.90;;;;;;5053335;28;20176;-72
2022/05/13 04:24:35;;;;;;;1999.90;999.90;;;11.40;99.90;;;;;;5053200;28;20188;-72
2022/05/13 04:27:01;;;;;;;1999.90;999.90;;;11.40;99.90;;;;;;5053491;28;20437;-72
2022/05/13 04:29:26;;;;;;;1999.90;999.90;;;11.40;99.90;;;;;;5053639;28;20698;-72
2022/05/13 04:31:52;;;;;;;1999.90;999.90;;;11.40;99.90;;;;;;5053705;28;20172;-72
2022/05/13 04:34:18;;;;;;;1999.90;999.90;;;11.30;99.90;;;;;;5053282;28;20179;-72
2022/05/13 04:36:43;;;;;;;1999.90;999.90;;;11.30;99.90;;;;;;5053076;28;20191;-72
2022/05/13 04:39:09;;;;;;;1999.90;999.90;;;11.30;99.90;;;;;;5053420;28;20176;-72
2022/05/13 04:44:20;;;;;;;1999.90;999.90;;;11.40;99.90;;;;;;5053699;28;20209;-72
2022/05/13 04:46:46;;;;;;;1999.90;999.90;;;11.40;99.90;;;;;;5053618;28;20442;-72
2022/05/13 04:49:11;;;;;;;1999.90;999.90;;;11.40;99.90;;;;;;5053916;28;20904;-72
2022/05/13 04:51:37;;;;;;;1999.90;999.90;;;11.40;99.90;;;;;;5055291;28;20401;-73
2022/05/13 04:54:04;;;;;;;1999.90;999.90;;;11.50;99.90;;;;;;5053679;28;20172;-73
2022/05/13 04:56:31;;;;;;;1999.90;999.90;;;11.50;99.90;;;;;;5053308;28;20183;-72
2022/05/13 04:58:57;;;;;;;1999.90;999.90;;;11.50;99.90;;;;;;5053371;28;20935;-72
2022/05/13 05:01:23;;;;;;;1999.90;999.90;;;11.60;99.90;;;;;;5053054;28;20414;-72
2022/05/13 05:03:49;;;;;;;1999.90;999.90;;;11.70;99.90;;;;;;5052819;28;20935;-72
2022/05/13 05:06:16;;;;;;;1999.90;999.90;;;11.60;99.90;;;;;;5052431;28;20447;-73
2022/05/13 05:08:43;;;;;;;1999.90;999.90;;;11.60;99.90;;;;;;5053167;28;20409;-72
2022/05/13 05:11:10;;;;;;;1999.90;999.90;;;11.60;99.90;;;;;;5052631;28;20824;-73
2022/05/13 05:13:38;;;;;;;1999.90;999.90;;;11.60;99.90;;;;;;5053069;28;20808;-72
2022/05/13 05:16:06;;;;;;;1999.90;999.90;;;11.60;99.90;;;;;;5052679;28;20488;-72
2022/05/13 05:18:32;;;;;;;1999.90;999.90;;;11.60;99.90;;;;;;5053786;28;20445;-72
2022/05/13 05:20:58;;;;;;;1999.90;999.90;;;11.60;99.90;;;;;;5053323;28;20489;-72
2022/05/13 05:23:30;;;;;;;1999.90;999.90;;;11.60;99.90;;;;;;5053452;28;20532;-73
2022/05/13 05:25:57;;;;;;;1999.90;999.90;;;11.60;99.90;;;;;;5052262;28;20198;-72
2022/05/13 05:28:23;;;;;;;1999.90;999.90;;;11.60;99.90;;;;;;5052650;28;20776;-72
2022/05/13 05:30:50;;;;;;;1999.90;999.90;;;11.70;99.90;;;;;;5052783;28;20406;-72
2022/05/13 05:33:15;;;;;;;1999.90;999.90;;;11.70;99.90;;;;;;5052716;28;20183;-73
2022/05/13 05:35:41;;;;;;;1999.90;999.90;;;11.80;99.90;;;;;;5051925;28;20410;-73
2022/05/13 05:38:08;;;;;;;1999.90;999.90;;;11.90;99.90;;;;;;5052832;28;20203;-73
2022/05/13 05:40:38;;;;;;;1999.90;999.90;;;12.00;99.90;;;;;;5052322;28;20461;-72
2022/05/13 05:43:10;;;;;;;1999.90;999.90;;;12.00;99.90;;;;;;5052579;28;20447;-73
2022/05/13 05:45:38;;;;;;;1999.90;999.90;;;12.10;99.90;;;;;;5052468;28;20407;-72
2022/05/13 05:48:05;;;;;;;1999.90;999.90;;;12.10;99.90;;;;;;5052331;28;20431;-72
2022/05/13 05:50:31;;;;;;;1999.90;999.90;;;12.10;99.90;;;;;;5052435;28;20395;-72
2022/05/13 05:52:56;;;;;;;1999.90;999.90;;;12.20;99.90;;;;;;5053066;28;20975;-73
2022/05/13 05:58:10;;;;;;;1999.90;999.90;;;12.20;99.90;;;;;;5052048;28;20181;-72
2022/05/13 06:00:39;;;;;;;1999.90;999.90;;;12.20;99.90;;;;;;5052422;28;20406;-73
2022/05/13 06:03:05;;;;;;;1999.90;999.90;;;12.30;99.90;;;;;;5052182;28;20472;-73
2022/05/13 06:05:31;;;;;;;1999.90;999.90;;;12.40;99.90;;;;;;5051633;28;20398;-73
2022/05/13 06:07:58;;;;;;;1999.90;999.90;;;12.40;99.90;;;;;;5051837;28;20915;-72
2022/05/13 06:10:25;;;;;;;1999.90;999.90;;;12.50;99.90;;;;;;5052103;28;20225;-73
2022/05/13 06:12:50;;;;;;;1999.90;999.90;;;12.50;99.90;;;;;;5051635;28;20486;-72
2022/05/13 06:15:16;;;;;;;1999.90;999.90;;;12.50;99.90;;;;;;5051379;28;20489;-72
2022/05/13 06:18:00;;;;;;;1999.90;999.90;;;12.60;99.90;;;;;;5055481;28;20687;-73
2022/05/13 06:20:29;;;;;;;1999.90;999.90;;;12.80;99.90;;;;;;5055776;28;20411;-72
2022/05/13 06:22:56;;;;;;;1999.90;999.90;;;12.90;99.90;;;;;;5055235;28;20559;-72
2022/05/13 06:25:22;;;;;;;1999.90;999.90;;;13.00;99.90;;;;;;5054976;28;20415;-73
2022/05/13 06:27:49;;;;;;;1999.90;999.90;;;13.10;99.90;;;;;;5055170;28;20936;-73
2022/05/13 06:30:25;;;;;;;1999.90;999.90;;;13.20;99.90;;;;;;5054979;28;20413;-73
2022/05/13 06:32:52;;;;;;;1999.90;999.90;;;13.20;99.90;;;;;;5054900;28;20756;-73
2022/05/13 06:35:17;;;;;;;1999.90;999.90;;;13.30;99.90;;;;;;5054346;28;20770;-72
2022/05/13 06:37:43;;;;;;;1999.90;999.90;;;13.30;99.90;;;;;;5054809;28;20422;-73
2022/05/13 06:40:09;;;;;;;1999.90;999.90;;;13.30;99.90;;;;;;5054975;28;20170;-73
2022/05/13 06:42:35;;;;;;;1999.90;999.90;;;13.40;99.90;;;;;;5050858;28;20512;-73
2022/05/13 06:45:01;;;;;;;1999.90;999.90;;;13.50;99.90;;;;;;5053902;28;20509;-72
2022/05/13 06:47:26;;;;;;;1999.90;999.90;;;13.40;99.90;;;;;;5054717;28;20209;-72
2022/05/13 06:49:52;;;;;;;1999.90;999.90;;;13.30;99.90;;;;;;5054600;28;20173;-72
2022/05/13 06:52:18;;;;;;;1999.90;999.90;;;13.30;99.90;;;;;;5054836;28;20174;-73
2022/05/13 06:54:44;;;;;;;1999.90;999.90;;;13.30;99.90;;;;;;5053845;28;20175;-73
2022/05/13 06:57:10;;;;;;;1999.90;999.90;;;13.40;99.90;;;;;;5054512;28;20263;-73
2022/05/13 06:59:37;;;;;;;1999.90;999.90;;;13.50;99.90;;;;;;5054452;28;20415;-72
2022/05/13 07:02:04;;;;;;;1999.90;999.90;;;13.60;99.90;;;;;;5054550;28;20498;-72
2022/05/13 07:04:29;;;;;;;1999.90;999.90;;;13.60;99.90;;;;;;5053638;28;20457;-73
2022/05/13 07:06:55;;;;;;;1999.90;999.90;;;13.70;99.90;;;;;;5054211;28;20886;-73
2022/05/13 07:09:22;;;;;;;1999.90;999.90;;;13.70;99.90;;;;;;5054344;28;20197;-73
2022/05/13 07:11:47;;;;;;;1999.90;999.90;;;13.80;99.90;;;;;;5054009;28;20408;-73
2022/05/13 07:14:13;;;;;;;1999.90;999.90;;;13.90;99.90;;;;;;5053952;28;20545;-72
2022/05/13 07:16:39;;;;;;;1999.90;999.90;;;14.00;99.90;;;;;;5054208;28;20218;-72
2022/05/13 07:19:06;;;;;;;1999.90;999.90;;;14.20;99.90;;;;;;5053845;28;20411;-72
2022/05/13 07:21:31;;;;;;;1999.90;999.90;;;14.40;99.90;;;;;;5054502;28;20635;-71
2022/05/13 07:23:57;;;;;;;1999.90;999.90;;;14.40;99.90;;;;;;5054284;28;20558;-72
2022/05/13 07:26:22;;;;;;;1999.90;999.90;;;14.40;99.90;;;;;;5053121;28;20235;-73
2022/05/13 07:28:48;;;;;;;1999.90;999.90;;;14.40;99.90;;;;;;5054806;28;20180;-71
2022/05/13 07:31:14;;;;;;;1999.90;999.90;;;14.50;99.90;;;;;;5053840;28;20174;-73
2022/05/13 07:33:40;;;;;;;1999.90;999.90;;;14.70;99.90;;;;;;5053007;28;20213;-73
2022/05/13 07:36:06;;;;;;;1999.90;999.90;;;14.70;99.90;;;;;;5052860;28;20684;-72
2022/05/13 07:38:32;;;;;;;1999.90;999.90;;;14.80;99.90;;;;;;5053968;28;20176;-72
2022/05/13 07:41:17;;;;;;;1999.90;999.90;;;14.70;99.90;;;;;;5053517;28;20437;-73
2022/05/13 07:43:46;;;;;;;1999.90;999.90;;;14.80;99.90;;;;;;5053454;28;20452;-73
2022/05/13 07:46:13;;;;;;;1999.90;999.90;;;14.80;99.90;;;;;;5052985;28;20418;-72
2022/05/13 07:48:40;;;;;;;1999.90;999.90;;;15.00;99.90;;;;;;5053428;28;20412;-72
2022/05/13 07:51:07;;;;;;;1999.90;999.90;;;15.10;99.90;;;;;;5053885;28;20406;-72
2022/05/13 07:53:32;;;;;;;1999.90;999.90;;;15.00;99.90;;;;;;5053448;28;20423;-73
2022/05/13 07:55:58;;;;;;;1999.90;999.90;;;15.00;99.90;;;;;;5024809;28;20448;-74
2022/05/13 07:58:24;;;;;;;1999.90;999.90;;;15.10;99.90;;;;;;4970965;28;20171;-75
2022/05/13 08:00:49;;;;;;;1999.90;999.90;;;15.10;99.90;;;;;;4971718;28;20419;-74
2022/05/13 08:03:17;;;;;;;1999.90;999.90;;;15.30;99.90;;;;;;4970177;28;20263;-74
2022/05/13 08:05:45;;;;;;;1999.90;999.90;;;15.30;99.90;;;;;;4969521;28;20173;-73
2022/05/13 08:08:13;;;;;;;1999.90;999.90;;;15.40;99.90;;;;;;4970680;28;20906;-73
2022/05/13 08:10:41;;;;;;;1999.90;999.90;;;15.40;99.90;;;;;;4968279;28;20411;-74
2022/05/13 08:13:07;;;;;;;1999.90;999.90;;;15.50;99.90;;;;;;4971154;28;21055;-73
2022/05/13 08:15:33;;;;;;;1999.90;999.90;;;15.60;99.90;;;;;;4970431;28;20909;-75
2022/05/13 08:17:59;;;;;;;1999.90;999.90;;;15.60;99.90;;;;;;4970220;28;20461;-74
2022/05/13 08:20:27;;;;;;;1999.90;999.90;;;15.70;99.90;;;;;;4970359;28;20755;-74
2022/05/13 08:22:53;;;;;;;1999.90;999.90;;;15.60;99.90;;;;;;4970870;28;20449;-74
2022/05/13 08:25:19;;;;;;;1999.90;999.90;;;15.60;99.90;;;;;;4970143;28;20792;-74
2022/05/13 08:27:45;;;;;;;1999.90;999.90;;;15.70;99.90;;;;;;4970633;28;20428;-73
2022/05/13 08:30:12;;;;;;;1999.90;999.90;;;15.80;99.90;;;;;;4970530;28;20624;-73
2022/05/13 08:32:37;;;;;;;1999.90;999.90;;;15.90;99.90;;;;;;4970018;28;20390;-73
2022/05/13 08:35:04;;;;;;;1999.90;999.90;;;16.00;99.90;;;;;;4970088;28;20937;-73
2022/05/13 08:37:30;;;;;;;1999.90;999.90;;;16.00;99.90;;;;;;4970134;28;20198;-73
2022/05/13 08:39:59;;;;;;;1999.90;999.90;;;16.00;99.90;;;;;;4969895;28;21095;-74
2022/05/13 08:42:36;;;;;;;1999.90;999.90;;;16.10;99.90;;;;;;4971327;28;21049;-73
2022/05/13 08:45:04;;;;;;;1999.90;999.90;;;16.10;99.90;;;;;;4970757;28;20452;-73
2022/05/13 08:47:39;;;;;;;1999.90;999.90;;;16.10;99.90;;;;;;4971397;28;20993;-73
2022/05/13 08:50:15;;;;;;;1999.90;999.90;;;16.40;99.90;;;;;;4970911;28;20757;-73
2022/05/13 08:53:11;;;;;;;1999.90;999.90;;;16.50;99.90;;;;;;4971137;28;20409;-74
2022/05/13 08:55:50;;;;;;;1999.90;999.90;;;16.50;99.90;;;;;;4969417;28;20534;-73
2022/05/13 08:58:23;;;;;;;1999.90;999.90;;;16.40;99.90;;;;;;4970213;28;20394;-73
2022/05/13 09:00:55;;;;;;;1999.90;999.90;;;16.50;99.90;;;;;;4970251;28;20443;-73
2022/05/13 09:03:34;;;;;;;1999.90;999.90;;;16.40;99.90;;;;;;4969839;28;20454;-73
2022/05/13 09:06:16;;;;;;;1999.90;999.90;;;16.50;99.90;;;;;;4969540;28;20409;-73
2022/05/13 09:08:42;;;;;;;1999.90;999.90;;;16.50;99.90;;;;;;4969765;28;20947;-73
2022/05/13 09:11:29;;;;;;;1999.90;999.90;;;16.60;99.90;;;;;;4970406;28;20417;-73
2022/05/13 09:14:12;;;;;;;1999.90;999.90;;;16.80;99.90;;;;;;4969197;28;20603;-73
2022/05/13 09:16:41;;;;;;;1999.90;999.90;;;16.80;99.90;;;;;;4969892;28;20448;-73
2022/05/13 09:19:14;;;;;;;1999.90;999.90;;;16.90;99.90;;;;;;4970106;28;20502;-73
2022/05/13 09:21:44;;;;;;;1999.90;999.90;;;17.00;99.90;;;;;;4970172;28;20420;-73
2022/05/13 09:24:11;;;;;;;1999.90;999.90;;;17.10;99.90;;;;;;4969073;28;20956;-73
2022/05/13 09:26:39;;;;;;;1999.90;999.90;;;17.20;99.90;;;;;;4970363;28;20522;-73
2022/05/13 09:29:10;;;;;;;1999.90;999.90;;;17.10;99.90;;;;;;4969863;28;20419;-73
2022/05/13 09:31:42;;;;;;;1999.90;999.90;;;17.10;99.90;;;;;;4969870;28;20410;-73
2022/05/13 09:34:28;;;;;;;1999.90;999.90;;;17.20;99.90;;;;;;4969091;28;20464;-73
2022/05/13 09:37:28;;;;;;;1999.90;999.90;;;17.30;99.90;;;;;;4969721;28;20443;-73
2022/05/13 09:40:26;;;;;;;1999.90;999.90;;;17.30;99.90;;;;;;4972684;28;20520;-73
2022/05/13 09:42:57;;;;;;;1999.90;999.90;;;17.20;99.90;;;;;;4980001;28;20426;-73
2022/05/13 09:45:25;;;;;;;1999.90;999.90;;;17.50;99.90;;;;;;4968577;28;20421;-73
2022/05/13 09:48:06;;;;;;;1999.90;999.90;;;17.40;99.90;;;;;;4969790;28;21074;-73
2022/05/13 09:50:54;;;;;;;1999.90;999.90;;;17.30;99.90;;;;;;4970065;28;20412;-73
2022/05/13 09:53:22;;;;;;;1999.90;999.90;;;17.50;99.90;;;;;;4972430;28;20417;-73
2022/05/13 09:55:53;;;;;;;1999.90;999.90;;;17.40;99.90;;;;;;4971664;28;20420;-73
2022/05/13 09:58:26;;;;;;;1999.90;999.90;;;17.30;99.90;;;;;;4972858;28;20779;-73
2022/05/13 10:01:00;;;;;;;1999.90;999.90;;;17.20;99.90;;;;;;4974387;28;20518;-74
2022/05/13 10:03:36;;;;;;;1999.90;999.90;;;17.40;99.90;;;;;;4974754;28;20460;-74
2022/05/13 10:06:10;;;;;;;1999.90;999.90;;;17.80;99.90;;;;;;4974596;28;20830;-73
2022/05/13 10:14:35;;;;;;;1999.90;999.90;;;18.40;99.90;;;;;;4973725;28;20552;-74
2022/05/13 10:17:06;;;;;;;1999.90;999.90;;;18.60;99.90;;;;;;4973070;28;20514;-74
2022/05/13 10:19:44;;;;;;;1999.90;999.90;;;18.80;99.90;;;;;;4972407;28;20453;-74
2022/05/13 10:22:33;;;;;;;1999.90;999.90;;;18.90;99.90;;;;;;4971858;28;20421;-74
2022/05/13 10:25:08;;;;;;;1999.90;999.90;;;18.40;99.90;;;;;;4971602;28;20457;-73
2022/05/13 10:27:50;;;;;;;1999.90;999.90;;;18.70;99.90;;;;;;4972766;28;20440;-74
2022/05/13 10:30:48;;;;;;;1999.90;999.90;;;18.80;99.90;;;;;;4971859;28;20451;-73
2022/05/13 10:33:38;;;;;;;1999.90;999.90;;;18.80;99.90;;;;;;4972295;28;20948;-74
2022/05/13 10:36:22;;;;;;;1999.90;999.90;;;18.40;99.90;;;;;;4971703;28;20809;-72
2022/05/13 10:38:59;;;;;;;1999.90;999.90;;;18.30;99.90;;;;;;4972738;28;20843;-73
2022/05/13 10:41:47;;;;;;;1999.90;999.90;;;18.10;99.90;;;;;;4973097;28;20416;-72
2022/05/13 10:44:28;;;;;;;1999.90;999.90;;;18.00;99.90;;;;;;4972725;28;20509;-72
2022/05/13 10:47:01;;;;;;;1999.90;999.90;;;18.20;99.90;;;;;;4973209;28;20427;-72
2022/05/13 10:49:35;;;;;;;1999.90;999.90;;;18.30;99.90;;;;;;4973239;28;20388;-72
2022/05/13 10:52:16;;;;;;;1999.90;999.90;;;18.60;99.90;;;;;;4973384;28;20413;-72
2022/05/13 10:54:47;;;;;;;1999.90;999.90;;;18.80;99.90;;;;;;4972690;28;20413;-72
2022/05/13 10:57:20;;;;;;;1999.90;999.90;;;18.80;99.90;;;;;;4973411;28;20699;-72
2022/05/13 11:00:40;;;;;;;1999.90;999.90;;;18.70;99.90;;;;;;4972838;28;20409;-72
2022/05/13 11:03:34;;;;;;;1999.90;999.90;;;18.60;98.60;;;;;;4992392;28;20801;-72
2022/05/13 11:06:19;;;;;;;1999.90;999.90;;;18.50;99.90;;;;;;4972697;28;20423;-72
2022/05/13 11:09:24;;;;;;;1999.90;999.90;;;18.60;99.90;;;;;;4972535;28;20440;-72
2022/05/13 11:11:55;;;;;;;1999.90;999.90;;;18.50;98.10;;;;;;4972840;28;20407;-72
2022/05/13 11:14:35;;;;;;;1999.90;999.90;;;18.60;98.50;;;;;;4971831;28;20415;-72
2022/05/13 11:17:14;;;;;;;1999.90;999.90;;;18.80;99.30;;;;;;4972827;28;20462;-72
2022/05/13 11:19:57;;;;;;;1999.90;999.90;;;19.20;97.50;;;;;;4972757;28;20884;-72
2022/05/13 11:22:56;;;;;;;1999.90;999.90;;;19.30;97.60;;;;;;4972314;28;20418;-72
2022/05/13 11:25:54;;;;;;;1999.90;999.90;;;19.30;99.30;;;;;;4971825;28;20426;-72
2022/05/13 11:28:33;;;;;;;1999.90;999.90;;;19.40;99.90;;;;;;4972878;28;20884;-72
2022/05/13 11:31:14;;;;;;;1999.90;999.90;;;19.60;99.80;;;;;;4970864;28;20431;-72
2022/05/13 11:33:51;;;;;;;1999.90;999.90;;;19.50;93.80;;;;;;4972866;28;20837;-72
2022/05/13 11:36:20;;;;;;;1999.90;999.90;;;19.80;95.30;;;;;;4971959;28;20440;-72
2022/05/13 11:39:03;;;;;;;1999.90;999.90;;;19.90;97.60;;;;;;4972415;28;20452;-72
2022/05/13 11:41:45;;;;;;;1999.90;999.90;;;19.80;96.00;;;;;;4972151;28;20401;-72
2022/05/13 11:44:14;;;;;;;1999.90;999.90;;;19.70;94.20;;;;;;4971221;28;20551;-72
2022/05/13 11:46:53;;;;;;;1999.90;999.90;;;19.50;96.20;;;;;;4972150;28;20430;-72
2022/05/13 11:49:30;;;;;;;1999.90;999.90;;;19.60;98.60;;;;;;4972564;28;20517;-72
2022/05/13 11:52:04;;;;;;;1999.90;999.90;;;19.60;93.80;;;;;;4971663;28;20481;-72
2022/05/13 11:54:30;;;;;;;1999.90;999.90;;;19.70;92.00;;;;;;4971678;28;20384;-72
2022/05/13 11:57:14;;;;;;;1999.90;999.90;;;20.00;94.40;;;;;;4971979;28;20440;-72
2022/05/13 11:59:46;;;;;;;1999.90;999.90;;;20.60;92.00;;;;;;4971947;28;20419;-72
2022/05/13 12:02:26;;;;;;;1999.90;999.90;;;21.20;90.30;;;;;;4971967;28;20877;-72
2022/05/13 12:05:11;;;;;;;1999.90;999.90;;;21.70;83.10;;;;;;4971500;28;20499;-72
2022/05/13 12:08:07;;;;;;;1999.90;999.90;;;22.30;80.60;;;;;;4971559;28;20407;-72
2022/05/13 12:10:40;;;;;;;1999.90;999.90;;;22.50;71.50;;;;;;4971588;28;20845;-72
2022/05/13 12:13:26;;;;;;;1999.90;999.90;;;22.90;65.70;;;;;;4971362;28;20430;-72
2022/05/13 12:16:29;;;;;;;1999.90;999.90;;;23.00;62.50;;;;;;4971035;28;20636;-72
2022/05/13 12:19:19;;;;;;;1999.90;999.90;;;23.40;58.80;;;;;;4971519;28;20420;-72
2022/05/13 12:22:03;;;;;;;1999.90;999.90;;;23.20;56.20;;;;;;4971144;28;20898;-73
2022/05/13 12:24:49;;;;;;;1999.90;999.90;;;22.80;56.80;;;;;;4970736;28;20446;-72
2022/05/13 12:27:47;;;;;;;1999.90;999.90;;;22.70;56.50;;;;;;4971587;28;20453;-72
2022/05/13 12:30:33;;;;;;;1999.90;999.90;;;22.80;55.90;;;;;;4980560;28;20826;-72
2022/05/13 12:33:25;;;;;;;1999.90;999.90;;;23.10;55.30;;;;;;4971517;28;20393;-72
2022/05/13 12:39:03;;;;;;;1999.90;999.90;;;23.20;52.80;;;;;;4969977;28;20430;-72